Aviation Digital Data Service (ADDS)

Output produced by METARs form (1655 UTC 23 January 2019)
found at http://www.aviationweather.gov/metar/data/
 
Forecast for: FBSK (SIR SERETSE KHAM, BW)
Text: FBSK 231600Z 2318/2424 24005KT CAVOK
Forecast period: 1800 UTC 23 January 2019 to 1200 UTC 24 January 2019
Forecast type: FROM: standard forecast or significant change
Winds: from the WSW (240 degrees) at 6 MPH (5 knots; 2.6 m/s)
Visibility: 6 or more miles 10+ km)
Ceiling: unknown
Clouds: missing
Weather: NSW  (no significant weather)
Text: BECMG 2412/2414 FEW040CB
Forecast period: 1200 to 1600 UTC 24 January 2019
Forecast type: BECOMING: Conditions expected to become as follows by 1400 UTC 24 January 2019
Winds: from the WSW (240 degrees) at 6 MPH (5 knots; 2.6 m/s)
Visibility: 6 or more miles 10+ km)
Ceiling: at least 12,000 feet AGL
Clouds: few clouds at 4000 feet AGL
Weather: NSW  (no significant weather)
Text: BECMG 2416/2418 CAVOK
Forecast period: 1600 UTC 24 January 2019 to 0000 UTC 25 January 2019
Forecast type: BECOMING: Conditions expected to become as follows by 1800 UTC 24 January 2019
Winds: from the WSW (240 degrees) at 6 MPH (5 knots; 2.6 m/s)
Visibility: 6 or more miles 10+ km)
Ceiling: unknown
Clouds: missing
Weather: NSW  (no significant weather)